createdAt,value
2019-05-13T00:01:34.853Z,8.93
2019-05-13T00:04:03.566Z,8.94
2019-05-13T00:06:30.241Z,8.92
2019-05-13T00:08:56.748Z,8.93
2019-05-13T00:11:23.973Z,8.92
2019-05-13T00:13:50.860Z,8.83
2019-05-13T00:16:17.556Z,8.87
2019-05-13T00:18:44.531Z,8.91
2019-05-13T00:21:13.883Z,8.94
2019-05-13T00:23:39.986Z,8.97
2019-05-13T00:26:06.603Z,9.00
2019-05-13T00:28:34.308Z,9.07
2019-05-13T00:31:03.264Z,9.08
2019-05-13T00:33:29.406Z,9.15
2019-05-13T00:35:55.926Z,9.19
2019-05-13T00:38:24.470Z,9.21
2019-05-13T00:40:51.092Z,9.23
2019-05-13T00:43:17.899Z,9.26
2019-05-13T00:45:44.833Z,9.30
2019-05-13T00:48:11.591Z,9.31
2019-05-13T00:50:38.309Z,9.27
2019-05-13T00:53:05.031Z,9.24
2019-05-13T00:55:34.319Z,9.18
2019-05-13T00:58:01.385Z,9.17
2019-05-13T01:00:28.194Z,9.20
2019-05-13T01:02:54.681Z,9.21
2019-05-13T01:05:23.293Z,9.25
2019-05-13T01:07:49.829Z,9.24
2019-05-13T01:10:16.891Z,9.23
2019-05-13T01:12:44.138Z,9.22
2019-05-13T01:15:13.487Z,9.23
2019-05-13T01:17:40.293Z,9.20
2019-05-13T01:20:07.948Z,9.19
2019-05-13T01:22:34.556Z,9.19
2019-05-13T01:25:03.908Z,9.20
2019-05-13T01:27:32.908Z,9.20
2019-05-13T01:29:59.351Z,9.21
2019-05-13T01:32:25.961Z,9.16
2019-05-13T01:34:53.872Z,9.12
2019-05-13T01:37:20.668Z,9.16
2019-05-13T01:39:47.535Z,9.19
2019-05-13T01:42:14.151Z,9.17
2019-05-13T01:44:43.634Z,9.16
2019-05-13T01:47:09.487Z,9.13
2019-05-13T01:49:36.117Z,9.08
2019-05-13T01:52:03.997Z,9.07
2019-05-13T01:54:31.067Z,9.09
2019-05-13T01:56:59.681Z,9.07
2019-05-13T01:59:26.198Z,9.05
2019-05-13T02:01:54.120Z,9.05
2019-05-13T02:04:20.905Z,9.08
2019-05-13T02:06:47.603Z,9.07
2019-05-13T02:09:14.352Z,8.99
2019-05-13T02:11:43.876Z,8.98
2019-05-13T02:14:09.696Z,8.90
2019-05-13T02:16:36.263Z,8.90
2019-05-13T02:19:04.030Z,8.89
2019-05-13T02:21:33.466Z,8.94
2019-05-13T02:23:59.396Z,8.95
2019-05-13T02:26:26.107Z,8.87
2019-05-13T02:28:54.128Z,8.87
2019-05-13T02:31:32.019Z,8.86
2019-05-13T02:33:49.387Z,8.85
2019-05-13T02:36:16.049Z,8.83
2019-05-13T02:38:42.915Z,8.84
2019-05-13T02:41:13.129Z,8.90
2019-05-13T02:43:44.211Z,8.92
2019-05-13T02:46:07.187Z,8.95
2019-05-13T02:48:33.838Z,8.95
2019-05-13T02:51:03.352Z,8.93
2019-05-13T02:53:29.207Z,8.91
2019-05-13T02:55:55.929Z,8.91
2019-05-13T02:58:24.406Z,8.91
2019-05-13T03:00:53.285Z,8.91
2019-05-13T03:03:23.032Z,8.91
2019-05-13T03:05:52.348Z,8.90
2019-05-13T03:08:34.188Z,8.94
2019-05-13T03:10:45.476Z,8.92
2019-05-13T03:13:12.845Z,8.89
2019-05-13T03:15:47.751Z,8.90
2019-05-13T03:18:14.586Z,8.89
2019-05-13T03:20:43.021Z,8.89
2019-05-13T03:23:13.482Z,8.89
2019-05-13T03:25:42.742Z,8.90
2019-05-13T03:28:08.257Z,8.91
2019-05-13T03:30:35.818Z,8.93
2019-05-13T03:33:10.155Z,8.94
2019-05-13T03:35:36.503Z,8.96
2019-05-13T03:38:03.433Z,8.90
2019-05-13T03:40:32.905Z,8.93
2019-05-13T03:43:02.771Z,8.91
2019-05-13T03:45:32.500Z,8.85
2019-05-13T03:47:58.727Z,8.93
2019-05-13T03:50:29.986Z,8.88
2019-05-13T03:52:53.927Z,8.91
2019-05-13T03:55:23.405Z,8.86
2019-05-13T03:57:53.336Z,8.85
2019-05-13T04:00:19.262Z,8.84
2019-05-13T04:02:46.159Z,8.85
2019-05-13T04:05:13.625Z,8.87
2019-05-13T04:07:43.370Z,8.88
2019-05-13T04:10:12.893Z,8.85
2019-05-13T04:12:38.453Z,8.91
2019-05-13T04:15:05.697Z,8.85
2019-05-13T04:17:32.439Z,8.92
2019-05-13T04:20:02.368Z,8.90
2019-05-13T04:22:28.038Z,8.88
2019-05-13T04:24:54.801Z,8.90
2019-05-13T04:27:23.358Z,8.91
2019-05-13T04:29:52.769Z,8.94
2019-05-13T04:32:22.703Z,8.97
2019-05-13T04:34:48.249Z,8.97
2019-05-13T04:37:15.029Z,8.95
2019-05-13T04:39:51.286Z,8.93
2019-05-13T04:42:12.386Z,8.94
2019-05-13T04:44:42.570Z,8.96
2019-05-13T04:47:08.388Z,9.00
2019-05-13T04:49:35.833Z,8.94
2019-05-13T04:52:03.644Z,8.91
2019-05-13T04:54:33.061Z,8.89
2019-05-13T04:57:02.677Z,8.90
2019-05-13T04:59:28.144Z,8.91
2019-05-13T05:02:36.601Z,8.92
2019-05-13T05:05:34.846Z,8.89
2019-05-13T05:08:32.818Z,8.90
2019-05-13T05:11:44.906Z,8.90
2019-05-13T05:14:43.276Z,8.87
2019-05-13T05:18:05.806Z,8.84
2019-05-13T05:20:52.756Z,8.83
2019-05-13T05:23:58.340Z,8.85
2019-05-13T05:26:53.200Z,8.77
2019-05-13T05:29:57.540Z,8.70
2019-05-13T05:32:35.900Z,8.58
2019-05-13T05:35:32.370Z,8.61
2019-05-13T05:38:31.780Z,8.64
2019-05-13T05:41:01.673Z,8.63
2019-05-13T05:43:31.504Z,8.61
2019-05-13T05:46:01.759Z,8.62
2019-05-13T05:48:31.466Z,8.57
2019-05-13T05:51:01.975Z,8.58
2019-05-13T05:53:31.931Z,8.62
2019-05-13T05:56:02.173Z,8.60
2019-05-13T05:58:28.521Z,8.61
2019-05-13T06:00:55.653Z,8.69
2019-05-13T06:03:23.766Z,8.78
2019-05-13T06:05:51.294Z,8.82
2019-05-13T06:08:18.281Z,8.77
2019-05-13T06:10:50.174Z,8.80
2019-05-13T06:13:13.827Z,8.78
2019-05-13T06:15:42.104Z,8.79
2019-05-13T06:18:11.531Z,8.77
2019-05-13T06:20:38.054Z,8.76
2019-05-13T06:23:05.145Z,8.75
2019-05-13T06:25:33.704Z,8.77
2019-05-13T06:28:01.831Z,8.72
2019-05-13T06:30:29.117Z,8.74
2019-05-13T06:32:56.597Z,8.74
2019-05-13T06:35:23.680Z,8.72
2019-05-13T06:37:52.019Z,8.69
2019-05-13T06:40:21.209Z,8.60
2019-05-13T06:42:47.477Z,8.68
2019-05-13T06:45:14.155Z,8.67
2019-05-13T06:47:41.321Z,8.72
2019-05-13T06:50:11.694Z,8.75
2019-05-13T06:52:38.473Z,8.78
2019-05-13T06:55:05.779Z,8.77
2019-05-13T06:57:32.747Z,8.74
2019-05-13T07:00:01.689Z,8.66
2019-05-13T07:02:32.015Z,8.74
2019-05-13T07:04:58.558Z,8.75
2019-05-13T07:07:25.384Z,8.76
2019-05-13T07:09:52.127Z,8.71
2019-05-13T07:12:19.107Z,8.71
2019-05-13T07:14:45.879Z,8.58
2019-05-13T07:17:12.881Z,8.54
2019-05-13T07:19:41.521Z,8.55
2019-05-13T07:22:08.393Z,8.58
2019-05-13T07:24:35.008Z,8.56
2019-05-13T07:27:02.262Z,8.51
2019-05-13T07:29:32.127Z,8.54
2019-05-13T07:31:57.966Z,8.55
2019-05-13T07:34:24.971Z,8.53
2019-05-13T07:36:52.089Z,8.49
2019-05-13T07:39:18.912Z,8.48
2019-05-13T07:41:45.655Z,8.50
2019-05-13T07:44:12.155Z,8.53
2019-05-13T07:46:38.655Z,8.53
2019-05-13T07:49:05.346Z,8.57
2019-05-13T07:51:32.313Z,8.59
2019-05-13T07:53:59.166Z,8.52
2019-05-13T07:56:25.702Z,8.55
2019-05-13T07:58:52.547Z,8.46
2019-05-13T08:01:22.072Z,8.37
2019-05-13T08:03:51.439Z,8.47
2019-05-13T08:06:17.599Z,8.37
2019-05-13T08:08:44.125Z,8.25
2019-05-13T08:11:12.699Z,8.40
2019-05-13T08:13:39.161Z,8.45
2019-05-13T08:16:08.816Z,8.49
2019-05-13T08:18:35.464Z,8.38
2019-05-13T08:21:02.452Z,8.44
2019-05-13T08:23:29.286Z,8.38
2019-05-13T08:25:55.972Z,8.37
2019-05-13T08:28:22.872Z,8.42
2019-05-13T08:30:51.890Z,8.44
2019-05-13T08:33:18.526Z,8.51
2019-05-13T08:35:47.187Z,8.57
2019-05-13T08:38:13.766Z,8.43
2019-05-13T08:40:42.450Z,8.54
2019-05-13T08:43:08.699Z,8.61
2019-05-13T08:45:35.573Z,8.58
2019-05-13T08:48:02.433Z,8.61
2019-05-13T08:50:29.283Z,8.66
2019-05-13T08:52:56.252Z,8.69
2019-05-13T08:55:24.535Z,8.62
2019-05-13T08:57:54.913Z,8.69
2019-05-13T09:00:52.870Z,8.73
2019-05-13T09:03:21.647Z,8.82
2019-05-13T09:05:49.072Z,8.88
2019-05-13T09:08:16.499Z,8.86
2019-05-13T09:10:44.064Z,8.89
2019-05-13T09:13:12.102Z,8.94
2019-05-13T09:15:38.991Z,9.03
2019-05-13T09:18:05.622Z,9.10
2019-05-13T09:20:32.409Z,9.17
2019-05-13T09:22:59.059Z,9.24
2019-05-13T09:25:25.617Z,9.17
2019-05-13T09:28:02.570Z,9.30
2019-05-13T09:30:28.738Z,9.26
2019-05-13T09:32:57.007Z,9.24
2019-05-13T09:35:23.352Z,9.24
2019-05-13T09:37:51.604Z,9.17
2019-05-13T09:40:18.440Z,9.16
2019-05-13T09:42:51.035Z,9.18
2019-05-13T09:45:13.555Z,9.21
2019-05-13T09:47:41.738Z,9.22
2019-05-13T09:50:27.667Z,9.23
2019-05-13T09:52:42.909Z,9.26
2019-05-13T09:55:24.432Z,9.21
2019-05-13T09:57:37.852Z,9.32
2019-05-13T10:00:05.997Z,9.38
2019-05-13T10:02:32.807Z,9.46
2019-05-13T10:05:01.947Z,9.54
2019-05-13T10:07:28.151Z,9.65
2019-05-13T10:09:54.833Z,9.76
2019-05-13T10:12:24.301Z,9.91
2019-05-13T10:14:50.016Z,9.99
2019-05-13T10:17:16.422Z,10.10
2019-05-13T10:19:42.752Z,10.18
2019-05-13T10:22:11.807Z,10.36
2019-05-13T10:24:37.767Z,10.49
2019-05-13T10:27:04.452Z,10.56
2019-05-13T10:29:32.082Z,10.63
2019-05-13T10:31:59.007Z,10.69
2019-05-13T10:40:51.992Z,10.88
2019-05-13T10:43:31.032Z,10.88
2019-05-13T10:45:52.229Z,10.87
2019-05-13T10:48:18.002Z,10.85
2019-05-13T10:50:44.651Z,10.70
2019-05-13T10:53:12.278Z,10.62
2019-05-13T10:55:38.928Z,10.70
2019-05-13T10:58:06.982Z,10.77
2019-05-13T11:00:43.637Z,10.78
2019-05-13T11:03:11.801Z,10.71
2019-05-13T11:05:43.183Z,10.72
2019-05-13T11:08:08.009Z,10.69
2019-05-13T11:10:34.703Z,10.72
2019-05-13T11:13:01.712Z,10.60
2019-05-13T11:15:32.738Z,10.52
2019-05-13T11:17:56.863Z,10.53
2019-05-13T11:20:23.403Z,10.45
2019-05-13T11:22:52.192Z,10.41
2019-05-13T11:25:18.764Z,10.44
2019-05-13T11:27:45.561Z,10.26
2019-05-13T11:30:12.410Z,10.18
2019-05-13T11:32:42.409Z,10.25
2019-05-13T11:35:08.024Z,10.32
2019-05-13T11:37:34.543Z,10.27
2019-05-13T11:40:02.840Z,10.32
2019-05-13T11:42:32.547Z,10.29
2019-05-13T11:44:58.352Z,10.31
2019-05-13T11:47:24.989Z,10.30
2019-05-13T11:49:52.389Z,10.24
2019-05-13T11:52:19.221Z,10.25
2019-05-13T11:54:45.752Z,10.33
2019-05-13T11:57:12.760Z,10.39
2019-05-13T11:59:42.397Z,10.48
2019-05-13T12:02:07.957Z,10.44
2019-05-13T12:04:35.664Z,10.37
2019-05-13T12:07:03.534Z,10.34
2019-05-13T12:09:31.980Z,10.39
2019-05-13T12:11:58.721Z,10.41
2019-05-13T12:16:29.927Z,10.35
2019-05-13T12:18:56.566Z,10.31
2019-05-13T12:21:23.322Z,10.39
2019-05-13T12:23:52.760Z,10.45
2019-05-13T12:26:23.821Z,10.47
2019-05-13T12:28:53.586Z,10.46
2019-05-13T12:31:22.033Z,10.41
2019-05-13T12:33:48.300Z,10.35
2019-05-13T12:36:18.561Z,10.36
2019-05-13T12:38:44.891Z,10.30
2019-05-13T12:41:13.315Z,10.39
2019-05-13T12:43:42.335Z,10.43
2019-05-13T12:46:08.621Z,10.53
2019-05-13T12:48:35.519Z,10.60
2019-05-13T12:51:13.200Z,10.67
2019-05-13T12:53:39.017Z,10.76
2019-05-13T12:56:06.528Z,10.75
2019-05-13T12:58:34.118Z,10.77
2019-05-13T13:01:01.620Z,10.80
2019-05-13T13:03:28.274Z,10.77
2019-05-13T13:06:21.152Z,10.81
2019-05-13T13:08:41.997Z,10.88
2019-05-13T13:10:53.340Z,10.90
2019-05-13T13:13:26.816Z,11.00
2019-05-13T13:15:52.498Z,11.06
2019-05-13T13:18:18.789Z,11.04
2019-05-13T13:20:46.063Z,11.16
2019-05-13T13:23:13.044Z,11.25
2019-05-13T13:25:44.190Z,11.29
2019-05-13T13:28:14.236Z,11.38
2019-05-13T13:30:37.988Z,11.35
2019-05-13T13:33:05.013Z,11.35
2019-05-13T13:35:33.758Z,11.41
2019-05-13T13:38:04.127Z,11.39
2019-05-13T13:40:33.411Z,11.34
2019-05-13T13:42:57.408Z,11.38
2019-05-13T13:45:24.644Z,11.34
2019-05-13T13:48:02.274Z,11.31
2019-05-13T13:50:24.618Z,11.25
2019-05-13T13:52:52.787Z,11.20
2019-05-13T13:55:25.565Z,11.21
2019-05-13T13:57:48.360Z,11.16
2019-05-13T14:00:33.087Z,11.17
2019-05-13T14:02:44.178Z,11.17
2019-05-13T14:05:12.714Z,11.20
2019-05-13T14:07:42.270Z,11.16
2019-05-13T14:10:08.744Z,11.23
2019-05-13T14:12:36.318Z,11.21
2019-05-13T14:15:05.335Z,11.23
2019-05-13T14:17:33.404Z,11.31
2019-05-13T14:20:00.778Z,11.30
2019-05-13T14:22:32.176Z,11.31
2019-05-13T14:24:58.678Z,11.30
2019-05-13T14:27:25.661Z,11.32
2019-05-13T14:29:52.884Z,11.28
2019-05-13T14:32:22.301Z,11.28
2019-05-13T14:34:48.765Z,11.28
2019-05-13T14:37:15.407Z,11.31
2019-05-13T14:39:42.958Z,11.31
2019-05-13T14:42:11.644Z,11.29
2019-05-13T14:44:38.695Z,11.28
2019-05-13T14:47:06.000Z,11.33
2019-05-13T14:49:33.216Z,11.40
2019-05-13T14:52:01.249Z,11.45
2019-05-13T14:54:28.419Z,11.45
2019-05-13T14:56:55.563Z,11.42
2019-05-13T14:59:22.878Z,11.33
2019-05-13T15:01:51.994Z,11.37
2019-05-13T15:04:22.351Z,11.33
2019-05-13T15:06:48.206Z,11.34
2019-05-13T15:09:14.828Z,11.32
2019-05-13T15:11:42.030Z,11.31
2019-05-13T15:14:11.655Z,11.26
2019-05-13T15:16:38.757Z,11.32
2019-05-13T15:19:05.373Z,11.38
2019-05-13T15:21:32.276Z,11.36
2019-05-13T15:23:59.338Z,11.36
2019-05-13T15:26:26.110Z,11.40
2019-05-13T15:28:53.028Z,11.38
2019-05-13T15:31:22.157Z,11.35
2019-05-13T15:33:52.131Z,11.29
2019-05-13T15:36:22.559Z,11.31
2019-05-13T15:38:51.537Z,11.26
2019-05-13T15:41:17.755Z,11.17
2019-05-13T15:43:45.254Z,11.15
2019-05-13T15:46:12.968Z,11.15
2019-05-13T15:48:42.036Z,11.08
2019-05-13T15:51:08.205Z,11.02
2019-05-13T15:53:34.774Z,11.02
2019-05-13T15:56:02.691Z,11.02
2019-05-13T15:58:39.519Z,10.99
2019-05-13T16:00:58.736Z,11.00
2019-05-13T16:03:26.415Z,10.98
2019-05-13T16:05:53.344Z,10.97
2019-05-13T16:08:19.851Z,10.92
2019-05-13T16:10:46.635Z,10.88
2019-05-13T16:13:13.363Z,10.80
2019-05-13T16:15:42.091Z,10.79
2019-05-13T16:18:08.960Z,10.73
2019-05-13T16:20:42.854Z,10.68
2019-05-13T16:23:08.428Z,10.54
2019-05-13T16:25:36.855Z,10.55
2019-05-13T16:28:03.680Z,10.46
2019-05-13T16:30:32.635Z,10.35
2019-05-13T16:32:59.233Z,10.22
2019-05-13T16:35:26.717Z,10.13
2019-05-13T16:37:53.433Z,10.16
2019-05-13T16:40:22.270Z,10.13
2019-05-13T16:42:51.703Z,10.08
2019-05-13T16:45:21.715Z,9.95
2019-05-13T16:47:56.890Z,9.98
2019-05-13T16:50:17.951Z,9.98
2019-05-13T16:52:44.663Z,9.96
2019-05-13T16:55:13.059Z,9.93
2019-05-13T16:57:42.391Z,9.91
2019-05-13T17:00:10.639Z,9.87
2019-05-13T17:02:37.818Z,9.87
2019-05-13T17:05:05.518Z,9.87
2019-05-13T17:07:32.356Z,9.75
2019-05-13T17:10:01.077Z,9.74
2019-05-13T17:12:27.477Z,9.70
2019-05-13T17:14:54.355Z,9.49
2019-05-13T17:17:21.036Z,9.30
2019-05-13T17:19:50.806Z,9.23
2019-05-13T17:22:16.305Z,9.21
2019-05-13T17:24:43.326Z,9.21
2019-05-13T17:27:12.173Z,9.06
2019-05-13T17:29:39.175Z,8.88
2019-05-13T17:32:07.046Z,8.88
2019-05-13T17:34:34.007Z,8.87
2019-05-13T17:37:02.731Z,8.84
2019-05-13T17:39:29.420Z,8.74
2019-05-13T17:41:55.951Z,8.61
2019-05-13T17:44:22.665Z,8.52
2019-05-13T17:46:52.043Z,8.44
2019-05-13T17:49:18.320Z,8.38
2019-05-13T17:51:45.094Z,8.38
2019-05-13T17:54:12.257Z,8.33
2019-05-13T17:56:38.938Z,8.31
2019-05-13T17:59:05.706Z,8.22
2019-05-13T18:01:32.477Z,8.22
2019-05-13T18:03:59.004Z,8.24
2019-05-13T18:06:27.160Z,8.21
2019-05-13T18:08:54.180Z,8.22
2019-05-13T18:11:21.943Z,8.25
2019-05-13T18:13:48.962Z,8.24
2019-05-13T18:16:15.938Z,8.20
2019-05-13T18:18:46.990Z,8.21
2019-05-13T18:21:11.953Z,8.25
2019-05-13T18:23:41.286Z,8.19
2019-05-13T18:26:07.630Z,8.23
2019-05-13T18:28:34.346Z,8.21
2019-05-13T18:31:03.023Z,8.13
2019-05-13T18:33:31.705Z,8.16
2019-05-13T18:35:58.209Z,8.15
2019-05-13T18:38:24.772Z,8.13
2019-05-13T18:40:53.186Z,8.18
2019-05-13T18:43:21.520Z,8.15
2019-05-13T18:45:51.904Z,8.06
2019-05-13T18:48:18.670Z,8.03
2019-05-13T18:50:45.764Z,8.02
2019-05-13T18:53:12.459Z,7.97
2019-05-13T18:55:41.449Z,7.90
2019-05-13T18:58:07.821Z,7.90
2019-05-13T19:00:34.618Z,7.95
2019-05-13T19:03:01.605Z,7.92
2019-05-13T19:05:28.603Z,7.94
2019-05-13T19:07:55.075Z,7.90
2019-05-13T19:10:22.151Z,7.88
2019-05-13T19:12:49.552Z,7.86
2019-05-13T19:15:16.381Z,7.85
2019-05-13T19:17:43.072Z,7.81
2019-05-13T19:20:11.565Z,7.77
2019-05-13T19:22:38.694Z,7.85
2019-05-13T19:25:08.019Z,7.87
2019-05-13T19:27:34.655Z,7.92
2019-05-13T19:30:03.479Z,7.94
2019-05-13T19:32:32.314Z,7.96
2019-05-13T19:34:58.921Z,8.00
2019-05-13T19:37:25.814Z,7.98
2019-05-13T19:39:52.636Z,7.88
2019-05-13T19:42:22.170Z,7.88
2019-05-13T19:44:51.033Z,7.87
2019-05-13T19:47:17.920Z,7.89
2019-05-13T19:49:46.730Z,7.82
2019-05-13T19:52:14.166Z,7.71
2019-05-13T19:54:42.036Z,7.74
2019-05-13T19:57:09.052Z,7.74
2019-05-13T19:59:37.782Z,7.71
2019-05-13T20:02:04.390Z,7.67
2019-05-13T20:04:31.485Z,7.62
2019-05-13T20:06:58.737Z,7.53
2019-05-13T20:09:25.851Z,7.53
2019-05-13T20:11:55.314Z,7.47
2019-05-13T20:14:22.347Z,7.53
2019-05-13T20:16:49.370Z,7.51
2019-05-13T20:19:16.239Z,7.42
2019-05-13T20:21:43.047Z,7.46
2019-05-13T20:24:11.956Z,7.42
2019-05-13T20:26:41.272Z,7.39
2019-05-13T20:29:09.509Z,7.44
2019-05-13T20:31:36.495Z,7.38
2019-05-13T20:34:05.899Z,7.34
2019-05-13T20:36:32.781Z,7.34
2019-05-13T20:38:59.466Z,7.39
2019-05-13T20:41:26.300Z,7.40
2019-05-13T20:43:53.122Z,7.42
2019-05-13T20:46:23.168Z,7.44
2019-05-13T20:48:51.804Z,7.44
2019-05-13T20:51:18.504Z,7.47
2019-05-13T20:53:53.037Z,7.43
2019-05-13T20:56:21.672Z,7.46
2019-05-13T20:58:48.644Z,7.46
2019-05-13T21:01:29.776Z,7.48
2019-05-13T21:04:15.577Z,7.50
2019-05-13T21:06:42.373Z,7.50
2019-05-13T21:09:14.368Z,7.48
2019-05-13T21:11:37.957Z,7.49
2019-05-13T21:14:05.126Z,7.49
2019-05-13T21:16:31.891Z,7.50
2019-05-13T21:18:58.894Z,7.51
2019-05-13T21:21:25.712Z,7.46
2019-05-13T21:23:52.636Z,7.42
2019-05-13T21:26:19.376Z,7.42
2019-05-13T21:28:46.158Z,7.40
2019-05-13T21:31:12.764Z,7.34
2019-05-13T21:33:39.313Z,7.18
2019-05-13T21:36:06.020Z,7.01
2019-05-13T21:38:32.649Z,6.83
2019-05-13T21:40:59.507Z,6.82
2019-05-13T21:43:26.254Z,6.75
2019-05-13T21:45:52.942Z,6.77
2019-05-13T21:48:21.634Z,6.76
2019-05-13T21:50:48.062Z,6.81
2019-05-13T21:53:14.677Z,6.76
2019-05-13T21:55:41.708Z,6.72
2019-05-13T21:58:13.839Z,6.71
2019-05-13T22:00:43.676Z,6.71
2019-05-13T22:03:11.572Z,6.74
2019-05-13T22:05:38.658Z,6.77
2019-05-13T22:08:05.359Z,6.81
2019-05-13T22:10:32.273Z,6.76
2019-05-13T22:13:01.287Z,6.80
2019-05-13T22:15:27.635Z,6.81
2019-05-13T22:17:54.311Z,6.83
2019-05-13T22:20:21.428Z,6.87
2019-05-13T22:22:48.529Z,6.86
2019-05-13T22:25:15.393Z,6.88
2019-05-13T22:27:42.162Z,6.94
2019-05-13T22:30:11.714Z,6.97
2019-05-13T22:32:38.057Z,6.96
2019-05-13T22:35:05.105Z,6.91
2019-05-13T22:37:31.834Z,6.85
2019-05-13T22:39:58.474Z,6.89
2019-05-13T22:42:25.181Z,6.92
2019-05-13T22:44:52.315Z,6.94
2019-05-13T22:47:19.189Z,6.92
2019-05-13T22:49:47.748Z,6.93
2019-05-13T22:52:14.410Z,6.93
2019-05-13T22:54:41.321Z,6.93
2019-05-13T22:57:08.221Z,6.87
2019-05-13T22:59:34.837Z,6.88
2019-05-13T23:02:01.366Z,6.90
2019-05-13T23:04:28.245Z,6.90
2019-05-13T23:06:54.779Z,6.85
2019-05-13T23:09:22.661Z,6.76
2019-05-13T23:11:51.132Z,6.76
2019-05-13T23:14:19.143Z,6.74
2019-05-13T23:16:45.713Z,6.70
2019-05-13T23:19:12.379Z,6.73
2019-05-13T23:21:39.012Z,6.69
2019-05-13T23:24:05.600Z,6.69
2019-05-13T23:26:32.255Z,6.72
2019-05-13T23:28:58.865Z,6.75
2019-05-13T23:31:25.471Z,6.76
2019-05-13T23:33:52.057Z,6.78
2019-05-13T23:36:18.626Z,6.70
2019-05-13T23:38:45.092Z,6.72
2019-05-13T23:41:11.949Z,6.69
2019-05-13T23:43:38.796Z,6.69
2019-05-13T23:46:05.375Z,6.70
2019-05-13T23:48:32.270Z,6.71
2019-05-13T23:51:01.189Z,6.69
2019-05-13T23:53:27.951Z,6.60
2019-05-13T23:55:54.412Z,6.63
2019-05-13T23:58:21.680Z,6.62
